Time;durP1;ratioP1;P1;durP2;ratioP2;P2;SDS_P1;SDS_P2;PMS_P1;PMS_P2;Temp;Humidity;BMP_temperature;BMP_pressure;BME280_temperature;BME280_humidity;BME280_pressure;Samples;Min_cycle;Max_cycle;Signal;HPM_P1;HPM_P2
2021/06/28 00:00:11;;;;;;;3.90;3.60;;;22.20;71.20;;;;;;4999939;28;20131;-64
2021/06/28 00:02:37;;;;;;;6.63;3.30;;;22.20;72.20;;;;;;5001167;28;20509;-64
2021/06/28 00:05:05;;;;;;;5.53;3.45;;;22.20;71.20;;;;;;4996363;28;20084;-64
2021/06/28 00:07:31;;;;;;;3.72;3.20;;;22.20;71.10;;;;;;4998689;28;20030;-64
2021/06/28 00:09:56;;;;;;;2.97;2.78;;;22.10;71.20;;;;;;5032895;28;20044;-64
2021/06/28 00:12:22;;;;;;;3.42;3.13;;;22.10;71.00;;;;;;4998516;28;20038;-65
2021/06/28 00:14:47;;;;;;;3.05;2.85;;;22.10;71.30;;;;;;5001425;28;20117;-64
2021/06/28 00:17:13;;;;;;;3.38;3.08;;;22.00;71.40;;;;;;4999449;28;20489;-64
2021/06/28 00:19:39;;;;;;;3.83;3.05;;;22.00;71.60;;;;;;4998015;28;20092;-64
2021/06/28 00:22:04;;;;;;;3.38;3.03;;;21.90;71.70;;;;;;4999268;28;20041;-64
2021/06/28 00:24:30;;;;;;;3.45;3.15;;;21.90;71.80;;;;;;4995600;28;20084;-63
2021/06/28 00:26:55;;;;;;;5.80;2.90;;;21.80;72.00;;;;;;4999495;28;20038;-64
2021/06/28 00:29:23;;;;;;;5.10;3.13;;;21.80;72.10;;;;;;4998957;28;20050;-64
2021/06/28 00:31:51;;;;;;;3.05;2.85;;;21.70;72.30;;;;;;4998644;28;20506;-64
2021/06/28 00:34:16;;;;;;;3.17;2.85;;;21.70;72.50;;;;;;4997658;28;20733;-64
2021/06/28 00:36:42;;;;;;;3.28;3.00;;;21.70;72.70;;;;;;4996676;28;20038;-63
2021/06/28 00:39:08;;;;;;;3.28;2.85;;;21.70;72.90;;;;;;4996478;28;20031;-63
2021/06/28 00:41:33;;;;;;;4.60;3.30;;;21.70;73.00;;;;;;5000317;28;20117;-64
2021/06/28 00:43:59;;;;;;;4.10;2.60;;;21.70;73.00;;;;;;4999863;28;20061;-64
2021/06/28 00:46:25;;;;;;;4.70;2.80;;;21.70;72.90;;;;;;4996455;28;20544;-63
2021/06/28 00:48:50;;;;;;;5.32;2.65;;;21.70;73.10;;;;;;4999633;28;20116;-64
2021/06/28 00:51:16;;;;;;;2.80;2.60;;;21.70;72.90;;;;;;4997829;28;20097;-64
2021/06/28 00:53:42;;;;;;;3.45;2.70;;;21.70;72.90;;;;;;4998559;28;20046;-64
2021/06/28 00:56:09;;;;;;;3.15;2.80;;;21.60;72.80;;;;;;4997890;28;20406;-63
2021/06/28 00:58:39;;;;;;;2.78;2.58;;;21.60;72.90;;;;;;4997968;28;20034;-64
2021/06/28 01:01:05;;;;;;;2.80;2.42;;;21.60;72.90;;;;;;4998091;28;20025;-64
2021/06/28 01:03:31;;;;;;;3.20;2.90;;;21.60;72.80;;;;;;4997310;28;20113;-64
2021/06/28 01:05:59;;;;;;;2.80;2.60;;;21.60;72.60;;;;;;4996773;28;20109;-64
2021/06/28 01:08:24;;;;;;;4.15;2.63;;;21.60;72.80;;;;;;4997456;28;20746;-64
2021/06/28 01:10:50;;;;;;;3.08;2.45;;;21.60;72.60;;;;;;4996593;28;20041;-64
2021/06/28 01:13:15;;;;;;;2.83;2.55;;;21.50;73.00;;;;;;4998073;28;20026;-65
2021/06/28 01:15:42;;;;;;;4.35;3.35;;;21.50;73.20;;;;;;4997928;28;20057;-64
2021/06/28 01:18:08;;;;;;;10.15;5.63;;;21.40;73.40;;;;;;4999235;28;20045;-64
2021/06/28 01:20:35;;;;;;;8.02;4.68;;;21.40;73.60;;;;;;4996906;28;20045;-63
2021/06/28 01:23:19;;;;;;;3.78;2.97;;;21.40;73.50;;;;;;4997352;28;20049;-64
2021/06/28 01:25:47;;;;;;;2.95;2.67;;;21.40;74.70;;;;;;4997603;28;20030;-64
2021/06/28 01:28:13;;;;;;;3.10;2.80;;;21.40;73.70;;;;;;4999975;28;20085;-64
2021/06/28 01:30:39;;;;;;;3.90;2.88;;;21.40;73.50;;;;;;4999171;28;20576;-64
2021/06/28 01:33:05;;;;;;;3.13;2.83;;;21.40;73.50;;;;;;4997086;28;20122;-63
2021/06/28 01:35:31;;;;;;;4.50;2.83;;;21.40;73.50;;;;;;4996100;28;20038;-64
2021/06/28 01:37:56;;;;;;;5.63;2.72;;;21.40;73.50;;;;;;4996826;28;20448;-64
2021/06/28 01:40:22;;;;;;;3.00;2.80;;;21.40;73.70;;;;;;4999170;28;20072;-64
2021/06/28 01:42:49;;;;;;;2.95;2.75;;;21.40;73.70;;;;;;4998938;28;20042;-63
2021/06/28 01:45:20;;;;;;;2.42;2.22;;;21.40;73.50;;;;;;4999666;28;20040;-64
2021/06/28 01:47:47;;;;;;;2.72;2.55;;;21.40;74.00;;;;;;5030490;28;20037;-64
2021/06/28 01:50:14;;;;;;;2.45;2.35;;;21.40;73.50;;;;;;4997460;28;20501;-64
2021/06/28 01:52:40;;;;;;;3.17;2.08;;;21.40;73.60;;;;;;4996001;28;20129;-64
2021/06/28 01:55:09;;;;;;;2.95;2.10;;;21.50;73.50;;;;;;4996083;28;20413;-64
2021/06/28 01:57:39;;;;;;;4.82;2.25;;;21.50;73.30;;;;;;4995232;28;20046;-64
2021/06/28 02:00:06;;;;;;;2.85;2.22;;;21.50;73.00;;;;;;4998772;28;20034;-64
2021/06/28 02:02:32;;;;;;;2.47;2.28;;;21.50;73.10;;;;;;5008739;28;20038;-63
2021/06/28 02:04:57;;;;;;;2.60;2.40;;;21.60;73.10;;;;;;4997402;28;20050;-64
2021/06/28 02:07:24;;;;;;;3.13;2.10;;;21.60;72.80;;;;;;4995038;28;20109;-63
2021/06/28 02:09:50;;;;;;;2.67;2.20;;;21.60;72.90;;;;;;4996568;28;20030;-64
2021/06/28 02:12:16;;;;;;;2.50;2.30;;;21.60;73.20;;;;;;4997224;28;20042;-63
2021/06/28 02:14:42;;;;;;;2.67;2.22;;;21.60;73.90;;;;;;4997848;28;20045;-63
2021/06/28 02:17:07;;;;;;;2.05;1.92;;;21.60;73.00;;;;;;4996295;28;20030;-64
2021/06/28 02:19:33;;;;;;;2.40;2.20;;;21.60;72.90;;;;;;4999228;28;20725;-64
2021/06/28 02:22:00;;;;;;;2.15;1.85;;;21.60;72.80;;;;;;4995848;28;20668;-64
2021/06/28 02:24:26;;;;;;;5.93;2.20;;;21.50;72.60;;;;;;4999216;28;20062;-64
2021/06/28 02:26:51;;;;;;;2.42;1.90;;;21.50;72.70;;;;;;5030173;28;20501;-64
2021/06/28 02:29:17;;;;;;;2.00;1.90;;;21.50;72.80;;;;;;4996025;28;20034;-64
2021/06/28 02:31:43;;;;;;;2.83;2.13;;;21.50;72.80;;;;;;4998104;28;20038;-64
2021/06/28 02:34:09;;;;;;;2.28;2.17;;;21.40;72.90;;;;;;5029199;28;20398;-63
2021/06/28 02:36:36;;;;;;;2.88;2.30;;;21.40;73.00;;;;;;4995005;28;20030;-64
2021/06/28 02:39:02;;;;;;;2.40;2.20;;;21.40;73.00;;;;;;4996660;28;20037;-64
2021/06/28 02:41:28;;;;;;;4.82;2.42;;;21.30;73.00;;;;;;5029550;28;20034;-64
2021/06/28 02:43:54;;;;;;;2.92;2.72;;;21.30;73.40;;;;;;4995925;28;20081;-65
2021/06/28 02:46:20;;;;;;;4.40;2.20;;;21.30;73.60;;;;;;4997124;28;20041;-64
2021/06/28 02:48:46;;;;;;;3.13;2.70;;;21.30;73.80;;;;;;4996880;28;20510;-65
2021/06/28 02:51:13;;;;;;;5.95;2.72;;;21.20;73.90;;;;;;4998209;28;20041;-65
2021/06/28 02:53:39;;;;;;;2.88;2.58;;;21.20;73.90;;;;;;4998604;28;20044;-64
2021/06/28 02:56:14;;;;;;;2.67;2.47;;;21.20;74.00;;;;;;5001314;28;20077;-64
2021/06/28 02:58:46;;;;;;;3.15;2.50;;;21.20;74.00;;;;;;4999703;28;20030;-64
2021/06/28 03:01:13;;;;;;;3.50;2.58;;;21.20;74.40;;;;;;5032710;28;20154;-64
2021/06/28 03:03:39;;;;;;;2.92;2.67;;;21.20;74.10;;;;;;5032737;28;20037;-64
2021/06/28 03:06:05;;;;;;;3.78;2.97;;;21.20;74.00;;;;;;5014008;28;20054;-63
2021/06/28 03:08:31;;;;;;;5.28;3.03;;;21.10;74.00;;;;;;4998737;28;20061;-64
2021/06/28 03:10:57;;;;;;;2.75;2.55;;;21.10;73.90;;;;;;5000805;28;20030;-63
2021/06/28 03:13:23;;;;;;;2.90;2.63;;;21.10;73.90;;;;;;5013871;28;20036;-64
2021/06/28 03:15:48;;;;;;;3.28;2.70;;;21.10;74.00;;;;;;5000577;28;20042;-64
2021/06/28 03:18:14;;;;;;;3.83;2.83;;;21.00;74.10;;;;;;4993977;28;20109;-64
2021/06/28 03:20:40;;;;;;;4.30;2.90;;;21.00;74.30;;;;;;5000171;28;20058;-64
2021/06/28 03:23:06;;;;;;;3.15;2.90;;;21.00;74.20;;;;;;5000213;28;20026;-64
2021/06/28 03:25:32;;;;;;;3.40;2.90;;;21.00;74.10;;;;;;5001103;28;20095;-64
2021/06/28 03:27:57;;;;;;;3.40;3.10;;;21.00;74.00;;;;;;5001546;28;20037;-65
2021/06/28 03:30:23;;;;;;;5.28;3.25;;;21.00;74.10;;;;;;4999437;28;20034;-64
2021/06/28 03:32:49;;;;;;;6.22;2.90;;;20.90;74.00;;;;;;4999908;28;20038;-64
2021/06/28 03:35:14;;;;;;;3.08;2.70;;;20.90;74.70;;;;;;4999566;28;20398;-64
2021/06/28 03:37:40;;;;;;;5.15;3.05;;;20.90;73.80;;;;;;4998315;28;20034;-64
2021/06/28 03:40:11;;;;;;;3.85;2.70;;;20.80;74.00;;;;;;4996486;28;20042;-64
2021/06/28 03:42:37;;;;;;;2.88;2.55;;;20.80;74.20;;;;;;4997884;28;20037;-64
2021/06/28 03:45:05;;;;;;;2.67;2.47;;;20.80;74.00;;;;;;4997697;28;20085;-64
2021/06/28 03:47:31;;;;;;;2.83;2.63;;;20.80;74.10;;;;;;4998163;28;20038;-64
2021/06/28 03:49:57;;;;;;;2.83;2.63;;;20.70;74.00;;;;;;4997393;28;20046;-64
2021/06/28 03:52:22;;;;;;;2.60;2.40;;;20.70;73.90;;;;;;4999114;28;20045;-64
2021/06/28 03:54:48;;;;;;;2.83;2.55;;;20.70;73.90;;;;;;5032015;28;20536;-64
2021/06/28 03:57:14;;;;;;;3.42;2.80;;;20.70;74.00;;;;;;4999471;28;20064;-64
2021/06/28 03:59:39;;;;;;;3.17;2.80;;;20.70;74.10;;;;;;4997845;28;20027;-64
2021/06/28 04:02:05;;;;;;;2.72;2.53;;;20.70;74.10;;;;;;4997476;28;20034;-64
2021/06/28 04:04:30;;;;;;;5.85;2.78;;;20.60;74.00;;;;;;5028465;28;20045;-64
2021/06/28 04:06:56;;;;;;;4.57;2.58;;;20.60;74.00;;;;;;4997769;28;20053;-64
2021/06/28 04:09:22;;;;;;;2.78;2.53;;;20.50;74.20;;;;;;5000136;28;20100;-64
2021/06/28 04:11:47;;;;;;;2.90;2.55;;;20.50;74.40;;;;;;4998969;28;20529;-64
2021/06/28 04:14:13;;;;;;;3.85;2.45;;;20.50;74.50;;;;;;4998684;28;20069;-63
2021/06/28 04:16:39;;;;;;;3.85;2.65;;;20.40;74.70;;;;;;4996289;28;20034;-64
2021/06/28 04:19:04;;;;;;;3.10;2.60;;;20.40;74.80;;;;;;4995640;28;20030;-63
2021/06/28 04:21:32;;;;;;;2.85;2.63;;;20.40;74.90;;;;;;5032143;28;20065;-64
2021/06/28 04:23:57;;;;;;;2.58;2.38;;;20.40;75.10;;;;;;5030729;28;20033;-64
2021/06/28 04:26:23;;;;;;;3.53;2.67;;;20.40;75.00;;;;;;4998661;28;20049;-64
2021/06/28 04:28:48;;;;;;;3.25;2.85;;;20.40;74.90;;;;;;4997369;28;20034;-63
2021/06/28 04:31:14;;;;;;;3.28;3.08;;;20.40;75.10;;;;;;5010514;28;20508;-64
2021/06/28 04:33:39;;;;;;;3.28;2.97;;;20.40;75.20;;;;;;4991015;28;20038;-64
2021/06/28 04:36:05;;;;;;;16.30;8.52;;;20.40;75.40;;;;;;4997356;28;20081;-64
2021/06/28 04:38:31;;;;;;;34.53;17.05;;;20.30;75.40;;;;;;5000444;28;20026;-64
2021/06/28 04:40:56;;;;;;;12.48;7.72;;;20.40;75.70;;;;;;5001145;28;20490;-65
2021/06/28 04:43:22;;;;;;;6.85;4.72;;;20.40;75.80;;;;;;5001557;28;20038;-64
2021/06/28 04:45:48;;;;;;;5.53;4.13;;;20.40;75.80;;;;;;5002520;28;20063;-64
2021/06/28 04:48:15;;;;;;;4.28;3.83;;;20.40;75.90;;;;;;5000993;28;20041;-64
2021/06/28 04:50:41;;;;;;;6.50;4.25;;;20.40;76.10;;;;;;5000529;28;20397;-64
2021/06/28 04:53:06;;;;;;;8.60;4.38;;;20.40;76.30;;;;;;5000981;28;20053;-64
2021/06/28 04:55:32;;;;;;;5.13;4.40;;;20.40;76.40;;;;;;5000575;28;20657;-64
2021/06/28 04:57:57;;;;;;;10.60;4.07;;;20.40;76.50;;;;;;4999659;28;20393;-64
2021/06/28 05:00:25;;;;;;;7.38;3.63;;;20.40;76.60;;;;;;4997255;28;20476;-64
2021/06/28 05:02:51;;;;;;;6.90;2.72;;;20.40;76.60;;;;;;5001201;28;20038;-65
2021/06/28 05:05:17;;;;;;;7.03;2.97;;;20.40;76.30;;;;;;4999845;28;20124;-65
2021/06/28 05:07:44;;;;;;;3.25;2.95;;;20.40;76.40;;;;;;5000595;28;20038;-65
2021/06/28 05:10:11;;;;;;;5.45;3.17;;;20.50;76.60;;;;;;4999675;28;20117;-64
2021/06/28 05:12:37;;;;;;;5.00;3.28;;;20.50;76.70;;;;;;5000336;28;20058;-65
2021/06/28 05:15:05;;;;;;;4.90;3.30;;;20.50;76.70;;;;;;4996246;28;20720;-64
2021/06/28 05:17:31;;;;;;;4.18;3.58;;;20.50;76.70;;;;;;5031200;28;20505;-65
2021/06/28 05:19:56;;;;;;;4.60;3.40;;;20.60;76.80;;;;;;5000421;28;20041;-64
2021/06/28 05:22:22;;;;;;;5.53;3.20;;;20.60;76.60;;;;;;4999435;28;20045;-64
2021/06/28 05:24:48;;;;;;;6.13;3.38;;;20.70;76.70;;;;;;5031676;28;20468;-65
2021/06/28 05:27:13;;;;;;;5.65;3.35;;;20.70;76.80;;;;;;5001476;28;20054;-65
2021/06/28 05:29:39;;;;;;;5.40;3.25;;;20.80;76.80;;;;;;5000342;28;20037;-65
2021/06/28 05:32:05;;;;;;;4.70;3.15;;;20.80;77.00;;;;;;5000224;28;20113;-65
2021/06/28 05:34:30;;;;;;;4.40;3.13;;;20.90;77.30;;;;;;4998055;28;20433;-65
2021/06/28 05:36:56;;;;;;;5.90;3.88;;;20.90;77.20;;;;;;4999408;28;20038;-65
2021/06/28 05:39:22;;;;;;;3.25;3.05;;;21.00;77.70;;;;;;5001220;28;20052;-64
2021/06/28 05:41:47;;;;;;;5.40;3.50;;;21.10;76.60;;;;;;5000394;28;20026;-64
2021/06/28 05:44:13;;;;;;;5.63;3.15;;;21.20;76.70;;;;;;4996744;28;20037;-65
2021/06/28 05:46:38;;;;;;;3.33;2.97;;;21.20;76.30;;;;;;4996979;28;20429;-65
2021/06/28 05:49:04;;;;;;;4.70;3.33;;;21.30;76.10;;;;;;5000257;28;20132;-64
2021/06/28 05:51:30;;;;;;;4.13;3.25;;;21.40;76.50;;;;;;4999819;28;20042;-65
2021/06/28 05:53:56;;;;;;;3.80;2.90;;;21.50;76.50;;;;;;5000210;28;21993;-65
2021/06/28 05:56:21;;;;;;;4.20;2.90;;;21.60;76.10;;;;;;5000132;28;20035;-65
2021/06/28 05:58:48;;;;;;;3.75;2.60;;;21.70;75.80;;;;;;4999496;28;20029;-65
2021/06/28 06:01:15;;;;;;;4.93;3.10;;;21.70;75.80;;;;;;4999504;28;20026;-65
2021/06/28 06:03:41;;;;;;;3.75;2.97;;;21.80;75.60;;;;;;4999979;28;20030;-65
2021/06/28 06:06:06;;;;;;;4.05;3.00;;;21.90;74.90;;;;;;4999718;28;20077;-65
2021/06/28 06:08:34;;;;;;;3.42;2.83;;;22.00;75.20;;;;;;4999411;28;20054;-65
2021/06/28 06:11:00;;;;;;;3.13;2.60;;;22.10;74.70;;;;;;5001730;28;20034;-65
2021/06/28 06:13:26;;;;;;;2.97;2.63;;;22.20;74.20;;;;;;5000430;28;20507;-65
2021/06/28 06:15:54;;;;;;;2.50;2.40;;;22.30;74.80;;;;;;4999178;28;20386;-64
2021/06/28 06:18:20;;;;;;;2.63;2.42;;;22.40;74.90;;;;;;4998375;28;20034;-64
2021/06/28 06:20:47;;;;;;;3.15;2.70;;;22.40;73.90;;;;;;4994298;28;20038;-65
2021/06/28 06:23:14;;;;;;;4.32;2.47;;;22.50;73.90;;;;;;5000100;28;20128;-65
2021/06/28 06:25:41;;;;;;;2.28;2.05;;;22.60;73.40;;;;;;4999793;28;20512;-65
2021/06/28 06:28:08;;;;;;;4.30;2.28;;;22.60;72.70;;;;;;5004671;28;20145;-65
2021/06/28 06:30:33;;;;;;;2.35;2.03;;;22.70;73.10;;;;;;4999666;28;20040;-65
2021/06/28 06:33:00;;;;;;;2.15;1.90;;;22.70;73.10;;;;;;5003261;28;20480;-64
2021/06/28 06:35:26;;;;;;;3.63;2.08;;;22.70;72.30;;;;;;5035321;28;20041;-65
2021/06/28 06:37:54;;;;;;;2.08;1.92;;;22.80;72.50;;;;;;5003143;28;20042;-65
2021/06/28 06:40:21;;;;;;;1.90;1.80;;;22.90;72.30;;;;;;5036370;28;20046;-66
2021/06/28 06:42:47;;;;;;;2.20;1.83;;;22.90;72.10;;;;;;5002979;28;20038;-65
2021/06/28 06:45:14;;;;;;;2.35;1.90;;;23.00;72.10;;;;;;5003262;28;20529;-65
2021/06/28 06:47:40;;;;;;;2.10;2.00;;;23.10;71.80;;;;;;5003174;28;20450;-65
2021/06/28 06:50:06;;;;;;;2.00;1.83;;;23.20;71.80;;;;;;5003531;28;20521;-65
2021/06/28 06:52:32;;;;;;;2.22;2.13;;;23.20;71.50;;;;;;5002218;28;20097;-65
2021/06/28 06:54:57;;;;;;;2.30;2.10;;;23.30;71.10;;;;;;5002692;28;20041;-65
2021/06/28 06:57:23;;;;;;;2.70;2.50;;;23.40;71.20;;;;;;5002837;28;20034;-65
2021/06/28 06:59:49;;;;;;;2.65;2.45;;;23.50;71.10;;;;;;5000897;28;20120;-65
2021/06/28 07:02:14;;;;;;;2.75;2.55;;;23.50;71.00;;;;;;4991395;28;20066;-65
2021/06/28 07:04:40;;;;;;;2.85;2.65;;;23.60;71.10;;;;;;5002004;28;20038;-65
2021/06/28 07:07:06;;;;;;;3.63;3.03;;;23.60;70.80;;;;;;5002184;28;20083;-65
2021/06/28 07:09:32;;;;;;;2.72;2.53;;;23.70;70.50;;;;;;5000544;28;20030;-65
2021/06/28 07:11:57;;;;;;;2.35;2.20;;;23.80;70.80;;;;;;5003700;28;20109;-65
2021/06/28 07:14:24;;;;;;;5.60;2.00;;;23.80;70.00;;;;;;4997142;28;20406;-65
2021/06/28 07:16:51;;;;;;;2.58;2.38;;;23.90;70.20;;;;;;5002325;28;20037;-65
2021/06/28 07:19:16;;;;;;;2.90;2.55;;;23.90;70.00;;;;;;5002511;28;20046;-65
2021/06/28 07:21:42;;;;;;;2.78;2.58;;;24.00;69.90;;;;;;5004488;28;20409;-65
2021/06/28 07:24:09;;;;;;;3.40;2.72;;;24.00;69.70;;;;;;5002969;28;20160;-65
2021/06/28 07:26:36;;;;;;;2.70;2.30;;;24.10;69.70;;;;;;5002113;28;20121;-65
2021/06/28 07:29:02;;;;;;;2.28;2.08;;;24.10;69.50;;;;;;5003193;28;20383;-65
2021/06/28 07:31:28;;;;;;;2.28;2.17;;;24.30;69.30;;;;;;5002668;28;20413;-65
2021/06/28 07:33:53;;;;;;;2.53;2.00;;;24.40;69.00;;;;;;5001918;28;20441;-65
2021/06/28 07:36:19;;;;;;;3.25;2.05;;;24.40;69.30;;;;;;5034574;28;20034;-65
2021/06/28 07:38:45;;;;;;;1.75;1.65;;;24.50;68.80;;;;;;5000996;28;20030;-65
2021/06/28 07:41:11;;;;;;;1.90;1.80;;;24.60;68.60;;;;;;5002527;28;20029;-65
2021/06/28 07:43:37;;;;;;;1.83;1.73;;;24.70;68.40;;;;;;5001623;28;20497;-65
2021/06/28 07:46:04;;;;;;;2.67;2.05;;;24.80;68.10;;;;;;5000810;28;20041;-65
2021/06/28 07:48:30;;;;;;;1.70;1.60;;;24.90;68.00;;;;;;5033414;28;20061;-65
2021/06/28 07:50:56;;;;;;;1.90;1.80;;;25.00;67.10;;;;;;5004026;28;20038;-65
2021/06/28 07:53:22;;;;;;;1.90;1.80;;;25.00;66.80;;;;;;5000763;28;20038;-66
2021/06/28 07:55:48;;;;;;;4.38;1.80;;;25.10;66.60;;;;;;4999870;28;20111;-65
2021/06/28 07:58:14;;;;;;;2.25;1.92;;;25.20;66.10;;;;;;5000756;28;20394;-65
2021/06/28 08:00:40;;;;;;;1.92;1.83;;;25.30;66.40;;;;;;5000116;28;20129;-66
2021/06/28 08:03:07;;;;;;;2.83;1.95;;;25.40;66.20;;;;;;5002014;28;20169;-66
2021/06/28 08:05:34;;;;;;;1.92;1.80;;;25.50;66.00;;;;;;5002088;28;20030;-66
2021/06/28 08:08:00;;;;;;;2.30;2.20;;;25.60;65.80;;;;;;5002139;28;20053;-66
2021/06/28 08:10:26;;;;;;;2.80;2.60;;;25.70;65.30;;;;;;5000664;28;20042;-66
2021/06/28 08:12:52;;;;;;;3.00;2.80;;;25.90;65.10;;;;;;5002658;28;20030;-65
2021/06/28 08:15:19;;;;;;;3.13;2.60;;;25.90;64.70;;;;;;4999768;28;20058;-66
2021/06/28 08:17:46;;;;;;;2.47;2.35;;;26.00;64.60;;;;;;5001296;28;20046;-66
2021/06/28 08:20:12;;;;;;;3.25;2.40;;;26.10;64.60;;;;;;5002865;28;20030;-66
2021/06/28 08:22:38;;;;;;;2.97;2.67;;;26.20;64.40;;;;;;5002077;28;20044;-66
2021/06/28 08:25:06;;;;;;;3.08;2.88;;;26.30;63.50;;;;;;5002071;28;20030;-66
2021/06/28 08:27:32;;;;;;;9.45;3.00;;;26.40;63.80;;;;;;5001761;28;20104;-66
2021/06/28 08:29:58;;;;;;;2.92;2.70;;;26.50;64.00;;;;;;5001233;28;20498;-66
2021/06/28 08:32:24;;;;;;;2.10;2.00;;;26.60;63.60;;;;;;5001790;28;20038;-66
2021/06/28 08:34:53;;;;;;;2.65;1.92;;;26.70;62.20;;;;;;5000536;28;20544;-66
2021/06/28 08:37:19;;;;;;;2.05;1.95;;;26.80;62.00;;;;;;5002098;28;20053;-66
2021/06/28 08:39:44;;;;;;;2.13;1.95;;;26.90;60.90;;;;;;5001207;28;20041;-66
2021/06/28 08:42:11;;;;;;;1.80;1.70;;;27.00;60.40;;;;;;5000786;28;20038;-66
2021/06/28 08:44:37;;;;;;;2.35;2.17;;;27.10;60.60;;;;;;5001745;28;20030;-66
2021/06/28 08:47:05;;;;;;;2.30;2.10;;;27.20;59.70;;;;;;5001164;28;20041;-66
2021/06/28 08:49:32;;;;;;;1.98;1.77;;;27.30;59.30;;;;;;5001837;28;20026;-66
2021/06/28 08:51:58;;;;;;;1.95;1.85;;;27.40;59.40;;;;;;5031590;28;20493;-66
2021/06/28 08:54:25;;;;;;;1.80;1.70;;;27.60;59.30;;;;;;4999121;28;20040;-66
2021/06/28 08:56:51;;;;;;;2.58;1.98;;;27.70;59.40;;;;;;5000395;28;20121;-66
2021/06/28 08:59:17;;;;;;;2.17;1.98;;;27.70;58.70;;;;;;5000685;28;20042;-66
2021/06/28 09:01:42;;;;;;;2.20;2.10;;;27.90;58.50;;;;;;5000633;28;20041;-66
2021/06/28 09:04:09;;;;;;;2.47;2.03;;;28.00;58.00;;;;;;4998878;28;20035;-66
2021/06/28 09:06:36;;;;;;;1.80;1.70;;;28.10;57.90;;;;;;4998909;28;20124;-66
2021/06/28 09:09:09;;;;;;;1.38;1.27;;;28.20;57.80;;;;;;4996059;28;20501;-66
2021/06/28 09:11:47;;;;;;;1.33;1.25;;;28.30;56.30;;;;;;5000620;28;20053;-66
2021/06/28 09:14:14;;;;;;;1.50;1.40;;;28.30;55.80;;;;;;4999786;28;20576;-66
2021/06/28 09:16:42;;;;;;;1.70;1.60;;;28.50;55.60;;;;;;5001944;28;20034;-66
2021/06/28 09:19:14;;;;;;;1.67;1.58;;;28.60;55.70;;;;;;4999881;28;20030;-66
2021/06/28 09:21:49;;;;;;;2.40;1.52;;;28.60;54.80;;;;;;4999996;28;20030;-66
2021/06/28 09:24:30;;;;;;;2.47;1.42;;;28.70;55.00;;;;;;4998964;28;20030;-66
2021/06/28 09:27:18;;;;;;;2.17;1.52;;;28.80;54.20;;;;;;4999712;28;20536;-66
2021/06/28 09:29:52;;;;;;;2.20;1.50;;;28.90;54.80;;;;;;4999504;28;20433;-66
2021/06/28 09:32:20;;;;;;;1.70;1.60;;;29.00;54.90;;;;;;5000025;28;20042;-66
2021/06/28 09:34:48;;;;;;;1.70;1.60;;;29.10;54.50;;;;;;5031454;28;20038;-66
2021/06/28 09:37:16;;;;;;;1.80;1.67;;;29.20;54.10;;;;;;4998838;28;20030;-66
2021/06/28 09:39:47;;;;;;;1.40;1.30;;;29.30;53.70;;;;;;4999890;28;20107;-66
2021/06/28 09:42:19;;;;;;;1.48;1.40;;;29.40;53.90;;;;;;5000140;28;20042;-66
2021/06/28 09:44:55;;;;;;;1.45;1.35;;;29.50;53.20;;;;;;4998890;28;20479;-67
2021/06/28 09:47:26;;;;;;;1.85;1.48;;;29.60;53.40;;;;;;4999405;28;20362;-66
2021/06/28 09:50:17;;;;;;;1.63;1.52;;;29.70;53.50;;;;;;5033321;28;20038;-66
2021/06/28 09:52:55;;;;;;;1.80;1.70;;;29.80;53.00;;;;;;4998669;28;20038;-66
2021/06/28 09:55:26;;;;;;;2.00;1.80;;;29.80;52.10;;;;;;4999131;28;20038;-66
2021/06/28 09:58:22;;;;;;;1.60;1.50;;;29.90;52.50;;;;;;4999650;28;20525;-66
2021/06/28 10:00:50;;;;;;;1.48;1.38;;;30.00;53.40;;;;;;5000038;28;20038;-66
2021/06/28 10:03:31;;;;;;;1.38;1.27;;;30.00;52.60;;;;;;4998718;28;20034;-66
2021/06/28 10:08:48;;;;;;;1.73;1.20;;;30.20;51.50;;;;;;4999399;28;20472;-66
2021/06/28 10:11:17;;;;;;;1.17;1.15;;;30.30;51.50;;;;;;5000172;28;20042;-66
2021/06/28 10:13:50;;;;;;;1.40;1.30;;;30.30;51.50;;;;;;5029348;28;20041;-66
2021/06/28 10:16:16;;;;;;;1.20;1.10;;;30.30;51.10;;;;;;5030003;28;20409;-66
2021/06/28 10:18:42;;;;;;;1.20;1.10;;;30.50;51.60;;;;;;4996519;28;20034;-66
2021/06/28 10:21:08;;;;;;;1.63;1.23;;;30.50;50.60;;;;;;5000065;28;20450;-66
2021/06/28 10:23:35;;;;;;;1.30;1.20;;;30.50;49.80;;;;;;4998084;28;20034;-66
2021/06/28 10:26:02;;;;;;;1.42;1.33;;;30.60;50.10;;;;;;4998595;28;20034;-66
2021/06/28 10:28:29;;;;;;;1.38;1.20;;;30.70;49.50;;;;;;4999557;28;20042;-66
2021/06/28 10:30:54;;;;;;;2.45;1.20;;;30.70;49.40;;;;;;4997857;28;20030;-66
2021/06/28 10:33:22;;;;;;;2.22;1.40;;;30.70;49.70;;;;;;4999002;28;20315;-66
2021/06/28 10:35:49;;;;;;;1.42;1.08;;;30.80;49.20;;;;;;4998655;28;20053;-66
2021/06/28 10:38:15;;;;;;;1.15;1.15;;;30.90;49.10;;;;;;4998840;28;20035;-66
2021/06/28 10:40:59;;;;;;;1.65;1.30;;;30.90;48.50;;;;;;4998271;28;20030;-66
2021/06/28 10:43:35;;;;;;;2.17;1.13;;;31.00;48.20;;;;;;4998349;28;20505;-66
2021/06/28 10:46:05;;;;;;;1.20;1.10;;;31.00;48.20;;;;;;5029750;28;20037;-66
2021/06/28 10:48:44;;;;;;;1.05;1.05;;;31.10;48.10;;;;;;4998785;28;20651;-66
2021/06/28 10:51:11;;;;;;;0.98;0.95;;;31.20;47.00;;;;;;4999228;28;20034;-66
2021/06/28 10:53:36;;;;;;;1.10;1.00;;;31.20;47.50;;;;;;5029184;28;20068;-66
2021/06/28 10:59:00;;;;;;;1.30;1.20;;;31.30;46.80;;;;;;4995292;28;20078;-67
2021/06/28 11:01:40;;;;;;;0.90;0.90;;;31.30;46.60;;;;;;4988906;28;20513;-67
2021/06/28 11:04:11;;;;;;;1.00;1.00;;;31.30;46.40;;;;;;4998898;28;20033;-67
2021/06/28 11:06:43;;;;;;;2.85;1.02;;;31.40;46.10;;;;;;5030806;28;20026;-66
2021/06/28 11:09:10;;;;;;;0.90;0.90;;;31.40;46.70;;;;;;5031333;28;20095;-67
2021/06/28 11:11:45;;;;;;;2.92;0.80;;;31.50;46.10;;;;;;4998378;28;20042;-67
2021/06/28 11:14:30;;;;;;;1.10;1.00;;;31.60;45.90;;;;;;4999964;28;20108;-66
2021/06/28 11:16:57;;;;;;;1.08;0.82;;;31.60;45.40;;;;;;5003168;28;20037;-67
2021/06/28 11:19:46;;;;;;;0.90;0.90;;;31.60;46.00;;;;;;5033298;28;20606;-67
2021/06/28 11:22:33;;;;;;;0.98;0.98;;;31.60;45.20;;;;;;5003569;28;20049;-66
2021/06/28 11:25:15;;;;;;;0.90;0.90;;;31.60;44.70;;;;;;5002150;28;20033;-66
2021/06/28 11:27:47;;;;;;;1.27;1.08;;;31.70;45.50;;;;;;5002930;28;20057;-66
2021/06/28 11:30:13;;;;;;;1.10;1.00;;;31.70;45.30;;;;;;5002210;28;20445;-67
2021/06/28 11:33:01;;;;;;;1.00;1.00;;;31.80;45.10;;;;;;5034677;28;20096;-66
2021/06/28 11:35:40;;;;;;;1.50;1.10;;;31.80;44.90;;;;;;5000964;28;20113;-66
2021/06/28 11:38:25;;;;;;;1.80;0.93;;;31.90;43.60;;;;;;5002649;28;20552;-66
2021/06/28 11:40:52;;;;;;;;;;;31.90;44.30;;;;;;5002653;28;20141;-66
2021/06/28 11:43:47;;;;;;;1.10;1.10;;;31.90;46.40;;;;;;5001210;28;19968;-67
2021/06/28 11:46:17;;;;;;;0.90;0.90;;;32.00;44.20;;;;;;5002307;28;20625;-66
2021/06/28 11:48:53;;;;;;;1.15;1.00;;;32.00;44.50;;;;;;5002645;28;20504;-67
2021/06/28 11:51:27;;;;;;;0.80;0.80;;;32.10;44.20;;;;;;5001460;28;20034;-66
2021/06/28 11:54:02;;;;;;;1.60;1.00;;;32.10;44.30;;;;;;5001641;28;20049;-66
2021/06/28 11:56:31;;;;;;;1.10;1.10;;;32.10;43.90;;;;;;5001643;28;20038;-67
2021/06/28 12:03:37;;;;;;;0.90;0.90;;;32.20;45.20;;;;;;5108979;27;20430;-66
2021/06/28 12:06:10;;;;;;;0.90;0.90;;;32.10;43.80;;;;;;5102797;27;20028;-66
2021/06/28 12:08:36;;;;;;;0.90;0.90;;;32.10;44.20;;;;;;5102412;27;20530;-66
2021/06/28 12:11:02;;;;;;;1.42;1.05;;;32.10;45.00;;;;;;5102585;27;20096;-66
2021/06/28 12:13:34;;;;;;;1.67;1.15;;;32.10;43.50;;;;;;5100170;28;20047;-66
2021/06/28 12:16:17;;;;;;;0.95;0.95;;;32.20;43.70;;;;;;5103029;27;20042;-66
2021/06/28 12:18:45;;;;;;;3.88;1.10;;;32.20;43.40;;;;;;5103701;27;20055;-66
2021/06/28 12:21:11;;;;;;;0.90;0.90;;;32.30;43.80;;;;;;5104027;27;20079;-67
2021/06/28 12:23:37;;;;;;;1.08;0.80;;;32.30;44.00;;;;;;5101526;27;20048;-67
2021/06/28 12:26:13;;;;;;;1.10;1.00;;;32.30;44.10;;;;;;5104021;27;20078;-66
2021/06/28 12:28:40;;;;;;;1.52;1.00;;;32.40;43.70;;;;;;5101180;27;20042;-67
2021/06/28 12:31:16;;;;;;;1.08;1.02;;;32.40;43.40;;;;;;5098513;28;20405;-67
2021/06/28 12:33:42;;;;;;;1.13;1.00;;;32.40;42.80;;;;;;5101036;27;20600;-66
2021/06/28 12:36:08;;;;;;;0.80;0.80;;;32.40;43.70;;;;;;5103688;27;20582;-67
2021/06/28 12:38:35;;;;;;;1.00;1.00;;;32.40;44.20;;;;;;5103321;27;20103;-67
2021/06/28 12:41:01;;;;;;;1.02;0.93;;;32.40;43.50;;;;;;5100013;27;20539;-66
2021/06/28 12:43:27;;;;;;;1.23;0.80;;;32.40;43.40;;;;;;5101795;27;20059;-67
2021/06/28 12:45:56;;;;;;;0.80;0.80;;;32.50;43.10;;;;;;5099684;28;20119;-66
2021/06/28 12:48:30;;;;;;;1.42;1.00;;;32.50;42.90;;;;;;5103108;27;20088;-66
2021/06/28 12:50:58;;;;;;;0.85;0.82;;;32.60;43.00;;;;;;5102762;27;20035;-66
2021/06/28 12:53:25;;;;;;;1.88;0.98;;;32.60;43.10;;;;;;5101050;27;20029;-66
2021/06/28 12:56:14;;;;;;;1.00;1.00;;;32.60;43.10;;;;;;5098592;27;20028;-66
2021/06/28 12:58:51;;;;;;;1.10;1.00;;;32.70;42.50;;;;;;5096204;27;20956;-66
2021/06/28 13:01:33;;;;;;;1.05;0.80;;;32.70;42.20;;;;;;5099846;28;20411;-66